Nora, Indiana
Current Conditions -  °F | °C
As of 10:03 AM on Friday 31 Oct 2014 (Local Time) from KEYE Reporting Station
Light Rain Light Rain  
Wind Chill: 32°   Ceiling: 1400
Heat Index: 41°   Visibility: 7mi
Dew Point: 37°   Wind: 20mph
Humidity: 86%   Direction: 320°NW
Pressure: 30.01"   Gusts: 29mph
Location:  39.8971°N, 86.18°W
Report Text: KEYE 311403Z AUTO 32017G25KT 7SM -RA FEW009 BKN014 OVC020 05/03 A3001 RMK AO2 P0001 T00500028
Loading
Personal Weather Stations






























Interactive Weather Map
Tropical Storm Tracking
New forecast layout! Learn more

10-Day Weather Forecast

Advertisements
Track Severe Weather on mobile